<?xml version="1.0" encoding="UTF-8" standalone="no" ?>
<gpx xmlns="http://www.topografix.com/GPX/1/1" xmlns:xsi="http://www.w3.org/2001/XMLSchema-instance" xsi:schemaLocation="http://www.topografix.com/GPX/1/1 http://www.topografix.com/GPX/1/1/gpx.xsd" version="1.1" creator="VisuGPX - https://www.visugpx.com">
  <metadata>
    <name>Rurey Et Les Forges De Chatillon</name>
    <desc><![CDATA[Route created on plotaroute.com]]></desc>
  </metadata>
  <trk>
    <name><![CDATA[Rurey Et Les Forges De Chatillon]]></name>
    <trkseg>
      <trkpt lat="47.09636" lon="6.00839">
        <ele>388</ele>
        <time>2022-06-05T00:00:00Z</time>
      </trkpt>
      <trkpt lat="47.09636" lon="6.00839">
        <ele>388</ele>
        <time>2022-06-05T00:00:00Z</time>
      </trkpt>
      <trkpt lat="47.09633" lon="6.00831">
        <ele>388</ele>
        <time>2022-06-05T00:00:05Z</time>
      </trkpt>
      <trkpt lat="47.09631" lon="6.00811">
        <ele>387</ele>
        <time>2022-06-05T00:00:16Z</time>
      </trkpt>
      <trkpt lat="47.09626" lon="6.00795">
        <ele>387</ele>
        <time>2022-06-05T00:00:26Z</time>
      </trkpt>
      <trkpt lat="47.0961" lon="6.00765">
        <ele>386</ele>
        <time>2022-06-05T00:00:46Z</time>
      </trkpt>
      <trkpt lat="47.09594" lon="6.00725">
        <ele>385</ele>
        <time>2022-06-05T00:01:12Z</time>
      </trkpt>
      <trkpt lat="47.0958" lon="6.00684">
        <ele>382</ele>
        <time>2022-06-05T00:01:37Z</time>
      </trkpt>
      <trkpt lat="47.09573" lon="6.00672">
        <ele>381</ele>
        <time>2022-06-05T00:01:46Z</time>
      </trkpt>
      <trkpt lat="47.09556" lon="6.00652">
        <ele>381</ele>
        <time>2022-06-05T00:02:03Z</time>
      </trkpt>
      <trkpt lat="47.09509" lon="6.00615">
        <ele>380</ele>
        <time>2022-06-05T00:02:46Z</time>
      </trkpt>
      <trkpt lat="47.09487" lon="6.00586">
        <ele>379</ele>
        <time>2022-06-05T00:03:10Z</time>
      </trkpt>
      <trkpt lat="47.09469" lon="6.0058">
        <ele>379</ele>
        <time>2022-06-05T00:03:24Z</time>
      </trkpt>
      <trkpt lat="47.09434" lon="6.00561">
        <ele>379</ele>
        <time>2022-06-05T00:03:54Z</time>
      </trkpt>
      <trkpt lat="47.09375" lon="6.00533">
        <ele>380</ele>
        <time>2022-06-05T00:04:44Z</time>
      </trkpt>
      <trkpt lat="47.09352" lon="6.00512">
        <ele>381</ele>
        <time>2022-06-05T00:05:06Z</time>
      </trkpt>
      <trkpt lat="47.09332" lon="6.00485">
        <ele>381</ele>
        <time>2022-06-05T00:05:28Z</time>
      </trkpt>
      <trkpt lat="47.09308" lon="6.00403">
        <ele>383</ele>
        <time>2022-06-05T00:06:16Z</time>
      </trkpt>
      <trkpt lat="47.09281" lon="6.00245">
        <ele>385</ele>
        <time>2022-06-05T00:07:45Z</time>
      </trkpt>
      <trkpt lat="47.09185" lon="5.99972">
        <ele>391</ele>
        <time>2022-06-05T00:10:33Z</time>
      </trkpt>
      <trkpt lat="47.09137" lon="5.99779">
        <ele>394</ele>
        <time>2022-06-05T00:12:25Z</time>
      </trkpt>
      <trkpt lat="47.09114" lon="5.99711">
        <ele>393</ele>
        <time>2022-06-05T00:13:07Z</time>
      </trkpt>
      <trkpt lat="47.09087" lon="5.99663">
        <ele>393</ele>
        <time>2022-06-05T00:13:40Z</time>
      </trkpt>
      <trkpt lat="47.09057" lon="5.99615">
        <ele>396</ele>
        <time>2022-06-05T00:14:16Z</time>
      </trkpt>
      <trkpt lat="47.09042" lon="5.99578">
        <ele>396</ele>
        <time>2022-06-05T00:14:40Z</time>
      </trkpt>
      <trkpt lat="47.09038" lon="5.99545">
        <ele>396</ele>
        <time>2022-06-05T00:14:58Z</time>
      </trkpt>
      <trkpt lat="47.09037" lon="5.99507">
        <ele>395</ele>
        <time>2022-06-05T00:15:19Z</time>
      </trkpt>
      <trkpt lat="47.09034" lon="5.99493">
        <ele>395</ele>
        <time>2022-06-05T00:15:27Z</time>
      </trkpt>
      <trkpt lat="47.0903" lon="5.99481">
        <ele>395</ele>
        <time>2022-06-05T00:15:34Z</time>
      </trkpt>
      <trkpt lat="47.0901" lon="5.99445">
        <ele>395</ele>
        <time>2022-06-05T00:15:59Z</time>
      </trkpt>
      <trkpt lat="47.08991" lon="5.99424">
        <ele>396</ele>
        <time>2022-06-05T00:16:19Z</time>
      </trkpt>
      <trkpt lat="47.08954" lon="5.99404">
        <ele>397</ele>
        <time>2022-06-05T00:16:50Z</time>
      </trkpt>
      <trkpt lat="47.08909" lon="5.99386">
        <ele>399</ele>
        <time>2022-06-05T00:17:28Z</time>
      </trkpt>
      <trkpt lat="47.08851" lon="5.99371">
        <ele>399</ele>
        <time>2022-06-05T00:18:14Z</time>
      </trkpt>
      <trkpt lat="47.08806" lon="5.9934">
        <ele>398</ele>
        <time>2022-06-05T00:18:55Z</time>
      </trkpt>
      <trkpt lat="47.08763" lon="5.99314">
        <ele>398</ele>
        <time>2022-06-05T00:19:32Z</time>
      </trkpt>
      <trkpt lat="47.08735" lon="5.99304">
        <ele>398</ele>
        <time>2022-06-05T00:19:55Z</time>
      </trkpt>
      <trkpt lat="47.08668" lon="5.99294">
        <ele>398</ele>
        <time>2022-06-05T00:20:49Z</time>
      </trkpt>
      <trkpt lat="47.08642" lon="5.99292">
        <ele>397</ele>
        <time>2022-06-05T00:21:09Z</time>
      </trkpt>
      <trkpt lat="47.08615" lon="5.99296">
        <ele>396</ele>
        <time>2022-06-05T00:21:31Z</time>
      </trkpt>
      <trkpt lat="47.08566" lon="5.99312">
        <ele>396</ele>
        <time>2022-06-05T00:22:12Z</time>
      </trkpt>
      <trkpt lat="47.08539" lon="5.99324">
        <ele>395</ele>
        <time>2022-06-05T00:22:35Z</time>
      </trkpt>
      <trkpt lat="47.08516" lon="5.99338">
        <ele>395</ele>
        <time>2022-06-05T00:22:54Z</time>
      </trkpt>
      <trkpt lat="47.08469" lon="5.99378">
        <ele>394</ele>
        <time>2022-06-05T00:23:38Z</time>
      </trkpt>
      <trkpt lat="47.08442" lon="5.99408">
        <ele>392</ele>
        <time>2022-06-05T00:24:05Z</time>
      </trkpt>
      <trkpt lat="47.08427" lon="5.99433">
        <ele>392</ele>
        <time>2022-06-05T00:24:23Z</time>
      </trkpt>
      <trkpt lat="47.08417" lon="5.99457">
        <ele>391</ele>
        <time>2022-06-05T00:24:39Z</time>
      </trkpt>
      <trkpt lat="47.08404" lon="5.99477">
        <ele>391</ele>
        <time>2022-06-05T00:24:53Z</time>
      </trkpt>
      <trkpt lat="47.08158" lon="5.99723">
        <ele>393</ele>
        <time>2022-06-05T00:28:52Z</time>
      </trkpt>
      <trkpt lat="47.08136" lon="5.99749">
        <ele>394</ele>
        <time>2022-06-05T00:29:15Z</time>
      </trkpt>
      <trkpt lat="47.08108" lon="5.99727">
        <ele>394</ele>
        <time>2022-06-05T00:29:40Z</time>
      </trkpt>
      <trkpt lat="47.08064" lon="5.9968">
        <ele>393</ele>
        <time>2022-06-05T00:30:24Z</time>
      </trkpt>
      <trkpt lat="47.08035" lon="5.99653">
        <ele>393</ele>
        <time>2022-06-05T00:30:52Z</time>
      </trkpt>
      <trkpt lat="47.08005" lon="5.99629">
        <ele>393</ele>
        <time>2022-06-05T00:31:19Z</time>
      </trkpt>
      <trkpt lat="47.07976" lon="5.99611">
        <ele>393</ele>
        <time>2022-06-05T00:31:44Z</time>
      </trkpt>
      <trkpt lat="47.0791" lon="5.99578">
        <ele>395</ele>
        <time>2022-06-05T00:32:40Z</time>
      </trkpt>
      <trkpt lat="47.07893" lon="5.99562">
        <ele>395</ele>
        <time>2022-06-05T00:32:56Z</time>
      </trkpt>
      <trkpt lat="47.07873" lon="5.99538">
        <ele>396</ele>
        <time>2022-06-05T00:33:17Z</time>
      </trkpt>
      <trkpt lat="47.07845" lon="5.99525">
        <ele>397</ele>
        <time>2022-06-05T00:33:40Z</time>
      </trkpt>
      <trkpt lat="47.07791" lon="5.99484">
        <ele>395</ele>
        <time>2022-06-05T00:34:29Z</time>
      </trkpt>
      <trkpt lat="47.07774" lon="5.99468">
        <ele>394</ele>
        <time>2022-06-05T00:34:45Z</time>
      </trkpt>
      <trkpt lat="47.07758" lon="5.99444">
        <ele>394</ele>
        <time>2022-06-05T00:35:03Z</time>
      </trkpt>
      <trkpt lat="47.07741" lon="5.99427">
        <ele>394</ele>
        <time>2022-06-05T00:35:21Z</time>
      </trkpt>
      <trkpt lat="47.07712" lon="5.99404">
        <ele>391</ele>
        <time>2022-06-05T00:35:46Z</time>
      </trkpt>
      <trkpt lat="47.07682" lon="5.99389">
        <ele>390</ele>
        <time>2022-06-05T00:36:12Z</time>
      </trkpt>
      <trkpt lat="47.07643" lon="5.99374">
        <ele>386</ele>
        <time>2022-06-05T00:36:44Z</time>
      </trkpt>
      <trkpt lat="47.07618" lon="5.99373">
        <ele>384</ele>
        <time>2022-06-05T00:37:04Z</time>
      </trkpt>
      <trkpt lat="47.07606" lon="5.99379">
        <ele>383</ele>
        <time>2022-06-05T00:37:14Z</time>
      </trkpt>
      <trkpt lat="47.076" lon="5.99388">
        <ele>382</ele>
        <time>2022-06-05T00:37:21Z</time>
      </trkpt>
      <trkpt lat="47.07599" lon="5.99395">
        <ele>382</ele>
        <time>2022-06-05T00:37:25Z</time>
      </trkpt>
      <trkpt lat="47.07599" lon="5.99401">
        <ele>382</ele>
        <time>2022-06-05T00:37:29Z</time>
      </trkpt>
      <trkpt lat="47.07606" lon="5.99422">
        <ele>382</ele>
        <time>2022-06-05T00:37:41Z</time>
      </trkpt>
      <trkpt lat="47.07665" lon="5.99522">
        <ele>381</ele>
        <time>2022-06-05T00:38:54Z</time>
      </trkpt>
      <trkpt lat="47.07671" lon="5.99542">
        <ele>380</ele>
        <time>2022-06-05T00:39:05Z</time>
      </trkpt>
      <trkpt lat="47.07667" lon="5.99554">
        <ele>379</ele>
        <time>2022-06-05T00:39:12Z</time>
      </trkpt>
      <trkpt lat="47.07659" lon="5.99562">
        <ele>378</ele>
        <time>2022-06-05T00:39:20Z</time>
      </trkpt>
      <trkpt lat="47.07644" lon="5.99565">
        <ele>377</ele>
        <time>2022-06-05T00:39:32Z</time>
      </trkpt>
      <trkpt lat="47.07618" lon="5.9956">
        <ele>376</ele>
        <time>2022-06-05T00:39:54Z</time>
      </trkpt>
      <trkpt lat="47.07554" lon="5.99537">
        <ele>372</ele>
        <time>2022-06-05T00:40:46Z</time>
      </trkpt>
      <trkpt lat="47.07473" lon="5.99495">
        <ele>363</ele>
        <time>2022-06-05T00:41:55Z</time>
      </trkpt>
      <trkpt lat="47.07383" lon="5.99459">
        <ele>354</ele>
        <time>2022-06-05T00:43:09Z</time>
      </trkpt>
      <trkpt lat="47.07338" lon="5.99453">
        <ele>351</ele>
        <time>2022-06-05T00:43:46Z</time>
      </trkpt>
      <trkpt lat="47.07294" lon="5.99455">
        <ele>342</ele>
        <time>2022-06-05T00:44:21Z</time>
      </trkpt>
      <trkpt lat="47.07257" lon="5.9947">
        <ele>340</ele>
        <time>2022-06-05T00:44:52Z</time>
      </trkpt>
      <trkpt lat="47.07233" lon="5.99491">
        <ele>343</ele>
        <time>2022-06-05T00:45:15Z</time>
      </trkpt>
      <trkpt lat="47.0722" lon="5.99507">
        <ele>344</ele>
        <time>2022-06-05T00:45:28Z</time>
      </trkpt>
      <trkpt lat="47.072" lon="5.99525">
        <ele>344</ele>
        <time>2022-06-05T00:45:47Z</time>
      </trkpt>
      <trkpt lat="47.0716" lon="5.99555">
        <ele>343</ele>
        <time>2022-06-05T00:46:23Z</time>
      </trkpt>
      <trkpt lat="47.07125" lon="5.9959">
        <ele>346</ele>
        <time>2022-06-05T00:46:57Z</time>
      </trkpt>
      <trkpt lat="47.07093" lon="5.99617">
        <ele>345</ele>
        <time>2022-06-05T00:47:26Z</time>
      </trkpt>
      <trkpt lat="47.07007" lon="5.99682">
        <ele>340</ele>
        <time>2022-06-05T00:48:44Z</time>
      </trkpt>
      <trkpt lat="47.06939" lon="5.99747">
        <ele>331</ele>
        <time>2022-06-05T00:49:49Z</time>
      </trkpt>
      <trkpt lat="47.0691" lon="5.99793">
        <ele>326</ele>
        <time>2022-06-05T00:50:23Z</time>
      </trkpt>
      <trkpt lat="47.06904" lon="5.99821">
        <ele>326</ele>
        <time>2022-06-05T00:50:39Z</time>
      </trkpt>
      <trkpt lat="47.06902" lon="5.99827">
        <ele>326</ele>
        <time>2022-06-05T00:50:43Z</time>
      </trkpt>
      <trkpt lat="47.06899" lon="5.99828">
        <ele>325</ele>
        <time>2022-06-05T00:50:45Z</time>
      </trkpt>
      <trkpt lat="47.06896" lon="5.99824">
        <ele>324</ele>
        <time>2022-06-05T00:50:48Z</time>
      </trkpt>
      <trkpt lat="47.06891" lon="5.99809">
        <ele>321</ele>
        <time>2022-06-05T00:50:58Z</time>
      </trkpt>
      <trkpt lat="47.06877" lon="5.99679">
        <ele>309</ele>
        <time>2022-06-05T00:52:09Z</time>
      </trkpt>
      <trkpt lat="47.06877" lon="5.9965">
        <ele>307</ele>
        <time>2022-06-05T00:52:26Z</time>
      </trkpt>
      <trkpt lat="47.06884" lon="5.99615">
        <ele>306</ele>
        <time>2022-06-05T00:52:45Z</time>
      </trkpt>
      <trkpt lat="47.06885" lon="5.99598">
        <ele>304</ele>
        <time>2022-06-05T00:52:55Z</time>
      </trkpt>
      <trkpt lat="47.06883" lon="5.99592">
        <ele>303</ele>
        <time>2022-06-05T00:52:58Z</time>
      </trkpt>
      <trkpt lat="47.06888" lon="5.99583">
        <ele>303</ele>
        <time>2022-06-05T00:53:05Z</time>
      </trkpt>
      <trkpt lat="47.06924" lon="5.99552">
        <ele>304</ele>
        <time>2022-06-05T00:53:37Z</time>
      </trkpt>
      <trkpt lat="47.06979" lon="5.99517">
        <ele>305</ele>
        <time>2022-06-05T00:54:26Z</time>
      </trkpt>
      <trkpt lat="47.07034" lon="5.99493">
        <ele>305</ele>
        <time>2022-06-05T00:55:12Z</time>
      </trkpt>
      <trkpt lat="47.07107" lon="5.99474">
        <ele>309</ele>
        <time>2022-06-05T00:56:11Z</time>
      </trkpt>
      <trkpt lat="47.07154" lon="5.99453">
        <ele>311</ele>
        <time>2022-06-05T00:56:51Z</time>
      </trkpt>
      <trkpt lat="47.07213" lon="5.99403">
        <ele>309</ele>
        <time>2022-06-05T00:57:45Z</time>
      </trkpt>
      <trkpt lat="47.07241" lon="5.99382">
        <ele>309</ele>
        <time>2022-06-05T00:58:10Z</time>
      </trkpt>
      <trkpt lat="47.07257" lon="5.99367">
        <ele>309</ele>
        <time>2022-06-05T00:58:26Z</time>
      </trkpt>
      <trkpt lat="47.07278" lon="5.99335">
        <ele>308</ele>
        <time>2022-06-05T00:58:50Z</time>
      </trkpt>
      <trkpt lat="47.07305" lon="5.99309">
        <ele>312</ele>
        <time>2022-06-05T00:59:16Z</time>
      </trkpt>
      <trkpt lat="47.07312" lon="5.99291">
        <ele>311</ele>
        <time>2022-06-05T00:59:27Z</time>
      </trkpt>
      <trkpt lat="47.07314" lon="5.99271">
        <ele>309</ele>
        <time>2022-06-05T00:59:38Z</time>
      </trkpt>
      <trkpt lat="47.07321" lon="5.99238">
        <ele>308</ele>
        <time>2022-06-05T00:59:57Z</time>
      </trkpt>
      <trkpt lat="47.07333" lon="5.99194">
        <ele>308</ele>
        <time>2022-06-05T01:00:23Z</time>
      </trkpt>
      <trkpt lat="47.07336" lon="5.99172">
        <ele>309</ele>
        <time>2022-06-05T01:00:35Z</time>
      </trkpt>
      <trkpt lat="47.07339" lon="5.99081">
        <ele>310</ele>
        <time>2022-06-05T01:01:25Z</time>
      </trkpt>
      <trkpt lat="47.07332" lon="5.99034">
        <ele>312</ele>
        <time>2022-06-05T01:01:51Z</time>
      </trkpt>
      <trkpt lat="47.07311" lon="5.98947">
        <ele>313</ele>
        <time>2022-06-05T01:02:42Z</time>
      </trkpt>
      <trkpt lat="47.07304" lon="5.98907">
        <ele>312</ele>
        <time>2022-06-05T01:03:04Z</time>
      </trkpt>
      <trkpt lat="47.07285" lon="5.98759">
        <ele>306</ele>
        <time>2022-06-05T01:04:26Z</time>
      </trkpt>
      <trkpt lat="47.07285" lon="5.98731">
        <ele>306</ele>
        <time>2022-06-05T01:04:41Z</time>
      </trkpt>
      <trkpt lat="47.07289" lon="5.9868">
        <ele>308</ele>
        <time>2022-06-05T01:05:10Z</time>
      </trkpt>
      <trkpt lat="47.07288" lon="5.98638">
        <ele>307</ele>
        <time>2022-06-05T01:05:33Z</time>
      </trkpt>
      <trkpt lat="47.07299" lon="5.98557">
        <ele>306</ele>
        <time>2022-06-05T01:06:17Z</time>
      </trkpt>
      <trkpt lat="47.07326" lon="5.98388">
        <ele>301</ele>
        <time>2022-06-05T01:07:52Z</time>
      </trkpt>
      <trkpt lat="47.07344" lon="5.9831">
        <ele>298</ele>
        <time>2022-06-05T01:08:37Z</time>
      </trkpt>
      <trkpt lat="47.07362" lon="5.98239">
        <ele>298</ele>
        <time>2022-06-05T01:09:18Z</time>
      </trkpt>
      <trkpt lat="47.07382" lon="5.98173">
        <ele>299</ele>
        <time>2022-06-05T01:09:58Z</time>
      </trkpt>
      <trkpt lat="47.07391" lon="5.9815">
        <ele>299</ele>
        <time>2022-06-05T01:10:12Z</time>
      </trkpt>
      <trkpt lat="47.07418" lon="5.98109">
        <ele>295</ele>
        <time>2022-06-05T01:10:44Z</time>
      </trkpt>
      <trkpt lat="47.07429" lon="5.98083">
        <ele>295</ele>
        <time>2022-06-05T01:11:00Z</time>
      </trkpt>
      <trkpt lat="47.07446" lon="5.9806">
        <ele>297</ele>
        <time>2022-06-05T01:11:19Z</time>
      </trkpt>
      <trkpt lat="47.07469" lon="5.98036">
        <ele>297</ele>
        <time>2022-06-05T01:11:41Z</time>
      </trkpt>
      <trkpt lat="47.07505" lon="5.98009">
        <ele>293</ele>
        <time>2022-06-05T01:12:14Z</time>
      </trkpt>
      <trkpt lat="47.07532" lon="5.97996">
        <ele>295</ele>
        <time>2022-06-05T01:12:37Z</time>
      </trkpt>
      <trkpt lat="47.07547" lon="5.97994">
        <ele>296</ele>
        <time>2022-06-05T01:12:48Z</time>
      </trkpt>
      <trkpt lat="47.07574" lon="5.98004">
        <ele>297</ele>
        <time>2022-06-05T01:13:11Z</time>
      </trkpt>
      <trkpt lat="47.076" lon="5.98026">
        <ele>299</ele>
        <time>2022-06-05T01:13:35Z</time>
      </trkpt>
      <trkpt lat="47.07622" lon="5.98038">
        <ele>298</ele>
        <time>2022-06-05T01:13:54Z</time>
      </trkpt>
      <trkpt lat="47.07677" lon="5.98074">
        <ele>296</ele>
        <time>2022-06-05T01:14:42Z</time>
      </trkpt>
      <trkpt lat="47.07702" lon="5.98095">
        <ele>298</ele>
        <time>2022-06-05T01:15:06Z</time>
      </trkpt>
      <trkpt lat="47.07752" lon="5.98153">
        <ele>299</ele>
        <time>2022-06-05T01:15:56Z</time>
      </trkpt>
      <trkpt lat="47.07877" lon="5.9833">
        <ele>301</ele>
        <time>2022-06-05T01:18:16Z</time>
      </trkpt>
      <trkpt lat="47.079" lon="5.98374">
        <ele>302</ele>
        <time>2022-06-05T01:18:46Z</time>
      </trkpt>
      <trkpt lat="47.07912" lon="5.98394">
        <ele>302</ele>
        <time>2022-06-05T01:19:00Z</time>
      </trkpt>
      <trkpt lat="47.0797" lon="5.9846">
        <ele>306</ele>
        <time>2022-06-05T01:19:59Z</time>
      </trkpt>
      <trkpt lat="47.08031" lon="5.98537">
        <ele>318</ele>
        <time>2022-06-05T01:21:04Z</time>
      </trkpt>
      <trkpt lat="47.08069" lon="5.98565">
        <ele>323</ele>
        <time>2022-06-05T01:21:37Z</time>
      </trkpt>
      <trkpt lat="47.08085" lon="5.98573">
        <ele>323</ele>
        <time>2022-06-05T01:21:51Z</time>
      </trkpt>
      <trkpt lat="47.08111" lon="5.98581">
        <ele>321</ele>
        <time>2022-06-05T01:22:13Z</time>
      </trkpt>
      <trkpt lat="47.0815" lon="5.98584">
        <ele>315</ele>
        <time>2022-06-05T01:22:44Z</time>
      </trkpt>
      <trkpt lat="47.08169" lon="5.9859">
        <ele>314</ele>
        <time>2022-06-05T01:22:59Z</time>
      </trkpt>
      <trkpt lat="47.08212" lon="5.98594">
        <ele>313</ele>
        <time>2022-06-05T01:23:34Z</time>
      </trkpt>
      <trkpt lat="47.08258" lon="5.98602">
        <ele>312</ele>
        <time>2022-06-05T01:24:11Z</time>
      </trkpt>
      <trkpt lat="47.08302" lon="5.98597">
        <ele>305</ele>
        <time>2022-06-05T01:24:46Z</time>
      </trkpt>
      <trkpt lat="47.08339" lon="5.98596">
        <ele>300</ele>
        <time>2022-06-05T01:25:16Z</time>
      </trkpt>
      <trkpt lat="47.08402" lon="5.98609">
        <ele>303</ele>
        <time>2022-06-05T01:26:07Z</time>
      </trkpt>
      <trkpt lat="47.08499" lon="5.98619">
        <ele>301</ele>
        <time>2022-06-05T01:27:25Z</time>
      </trkpt>
      <trkpt lat="47.08574" lon="5.98642">
        <ele>301</ele>
        <time>2022-06-05T01:28:26Z</time>
      </trkpt>
      <trkpt lat="47.08611" lon="5.98662">
        <ele>302</ele>
        <time>2022-06-05T01:28:58Z</time>
      </trkpt>
      <trkpt lat="47.08648" lon="5.98667">
        <ele>302</ele>
        <time>2022-06-05T01:29:28Z</time>
      </trkpt>
      <trkpt lat="47.08663" lon="5.98693">
        <ele>307</ele>
        <time>2022-06-05T01:29:47Z</time>
      </trkpt>
      <trkpt lat="47.08675" lon="5.98695">
        <ele>307</ele>
        <time>2022-06-05T01:29:56Z</time>
      </trkpt>
      <trkpt lat="47.08682" lon="5.98688">
        <ele>306</ele>
        <time>2022-06-05T01:30:03Z</time>
      </trkpt>
      <trkpt lat="47.08688" lon="5.98694">
        <ele>307</ele>
        <time>2022-06-05T01:30:09Z</time>
      </trkpt>
      <trkpt lat="47.08746" lon="5.98706">
        <ele>309</ele>
        <time>2022-06-05T01:30:55Z</time>
      </trkpt>
      <trkpt lat="47.08811" lon="5.9869">
        <ele>308</ele>
        <time>2022-06-05T01:31:49Z</time>
      </trkpt>
      <trkpt lat="47.08958" lon="5.98649">
        <ele>307</ele>
        <time>2022-06-05T01:33:49Z</time>
      </trkpt>
      <trkpt lat="47.08995" lon="5.98631">
        <ele>305</ele>
        <time>2022-06-05T01:34:20Z</time>
      </trkpt>
      <trkpt lat="47.0904" lon="5.98595">
        <ele>305</ele>
        <time>2022-06-05T01:35:01Z</time>
      </trkpt>
      <trkpt lat="47.09109" lon="5.98514">
        <ele>307</ele>
        <time>2022-06-05T01:36:12Z</time>
      </trkpt>
      <trkpt lat="47.09167" lon="5.98431">
        <ele>306</ele>
        <time>2022-06-05T01:37:17Z</time>
      </trkpt>
      <trkpt lat="47.09181" lon="5.98392">
        <ele>306</ele>
        <time>2022-06-05T01:37:40Z</time>
      </trkpt>
      <trkpt lat="47.09201" lon="5.9832">
        <ele>309</ele>
        <time>2022-06-05T01:38:23Z</time>
      </trkpt>
      <trkpt lat="47.09207" lon="5.98281">
        <ele>310</ele>
        <time>2022-06-05T01:38:45Z</time>
      </trkpt>
      <trkpt lat="47.09211" lon="5.98164">
        <ele>311</ele>
        <time>2022-06-05T01:39:49Z</time>
      </trkpt>
      <trkpt lat="47.09185" lon="5.97913">
        <ele>306</ele>
        <time>2022-06-05T01:42:07Z</time>
      </trkpt>
      <trkpt lat="47.09176" lon="5.97811">
        <ele>304</ele>
        <time>2022-06-05T01:43:04Z</time>
      </trkpt>
      <trkpt lat="47.09172" lon="5.97708">
        <ele>306</ele>
        <time>2022-06-05T01:44:00Z</time>
      </trkpt>
      <trkpt lat="47.09151" lon="5.97515">
        <ele>300</ele>
        <time>2022-06-05T01:45:46Z</time>
      </trkpt>
      <trkpt lat="47.09151" lon="5.97422">
        <ele>300</ele>
        <time>2022-06-05T01:46:37Z</time>
      </trkpt>
      <trkpt lat="47.09157" lon="5.97322">
        <ele>298</ele>
        <time>2022-06-05T01:47:32Z</time>
      </trkpt>
      <trkpt lat="47.0917" lon="5.97283">
        <ele>297</ele>
        <time>2022-06-05T01:47:56Z</time>
      </trkpt>
      <trkpt lat="47.09188" lon="5.97243">
        <ele>295</ele>
        <time>2022-06-05T01:48:22Z</time>
      </trkpt>
      <trkpt lat="47.09206" lon="5.97232">
        <ele>295</ele>
        <time>2022-06-05T01:48:37Z</time>
      </trkpt>
      <trkpt lat="47.09224" lon="5.97228">
        <ele>295</ele>
        <time>2022-06-05T01:48:52Z</time>
      </trkpt>
      <trkpt lat="47.09256" lon="5.97227">
        <ele>295</ele>
        <time>2022-06-05T01:49:18Z</time>
      </trkpt>
      <trkpt lat="47.09275" lon="5.97235">
        <ele>295</ele>
        <time>2022-06-05T01:49:34Z</time>
      </trkpt>
      <trkpt lat="47.09299" lon="5.97251">
        <ele>295</ele>
        <time>2022-06-05T01:49:55Z</time>
      </trkpt>
      <trkpt lat="47.09314" lon="5.97257">
        <ele>296</ele>
        <time>2022-06-05T01:50:07Z</time>
      </trkpt>
      <trkpt lat="47.09329" lon="5.97263">
        <ele>296</ele>
        <time>2022-06-05T01:50:20Z</time>
      </trkpt>
      <trkpt lat="47.09371" lon="5.97275">
        <ele>295</ele>
        <time>2022-06-05T01:50:54Z</time>
      </trkpt>
      <trkpt lat="47.09411" lon="5.973">
        <ele>294</ele>
        <time>2022-06-05T01:51:28Z</time>
      </trkpt>
      <trkpt lat="47.09483" lon="5.97365">
        <ele>293</ele>
        <time>2022-06-05T01:52:37Z</time>
      </trkpt>
      <trkpt lat="47.09529" lon="5.97394">
        <ele>292</ele>
        <time>2022-06-05T01:53:16Z</time>
      </trkpt>
      <trkpt lat="47.09565" lon="5.97397">
        <ele>289</ele>
        <time>2022-06-05T01:53:45Z</time>
      </trkpt>
      <trkpt lat="47.09577" lon="5.97408">
        <ele>288</ele>
        <time>2022-06-05T01:53:57Z</time>
      </trkpt>
      <trkpt lat="47.09584" lon="5.97421">
        <ele>288</ele>
        <time>2022-06-05T01:54:06Z</time>
      </trkpt>
      <trkpt lat="47.09635" lon="5.97558">
        <ele>299</ele>
        <time>2022-06-05T01:55:31Z</time>
      </trkpt>
      <trkpt lat="47.09681" lon="5.97646">
        <ele>305</ele>
        <time>2022-06-05T01:56:32Z</time>
      </trkpt>
      <trkpt lat="47.09737" lon="5.97726">
        <ele>307</ele>
        <time>2022-06-05T01:57:34Z</time>
      </trkpt>
      <trkpt lat="47.09801" lon="5.97791">
        <ele>310</ele>
        <time>2022-06-05T01:58:36Z</time>
      </trkpt>
      <trkpt lat="47.09867" lon="5.97818">
        <ele>304</ele>
        <time>2022-06-05T01:59:32Z</time>
      </trkpt>
      <trkpt lat="47.09997" lon="5.97889">
        <ele>305</ele>
        <time>2022-06-05T02:01:23Z</time>
      </trkpt>
      <trkpt lat="47.10085" lon="5.97909">
        <ele>301</ele>
        <time>2022-06-05T02:02:34Z</time>
      </trkpt>
      <trkpt lat="47.10166" lon="5.97908">
        <ele>306</ele>
        <time>2022-06-05T02:03:39Z</time>
      </trkpt>
      <trkpt lat="47.10234" lon="5.97893">
        <ele>307</ele>
        <time>2022-06-05T02:04:34Z</time>
      </trkpt>
      <trkpt lat="47.10332" lon="5.97844">
        <ele>308</ele>
        <time>2022-06-05T02:05:57Z</time>
      </trkpt>
      <trkpt lat="47.10399" lon="5.97794">
        <ele>305</ele>
        <time>2022-06-05T02:06:57Z</time>
      </trkpt>
      <trkpt lat="47.10412" lon="5.97783">
        <ele>304</ele>
        <time>2022-06-05T02:07:10Z</time>
      </trkpt>
      <trkpt lat="47.10464" lon="5.97714">
        <ele>304</ele>
        <time>2022-06-05T02:08:06Z</time>
      </trkpt>
      <trkpt lat="47.10499" lon="5.97659">
        <ele>299</ele>
        <time>2022-06-05T02:08:47Z</time>
      </trkpt>
      <trkpt lat="47.10556" lon="5.9753">
        <ele>305</ele>
        <time>2022-06-05T02:10:11Z</time>
      </trkpt>
      <trkpt lat="47.10571" lon="5.97468">
        <ele>304</ele>
        <time>2022-06-05T02:10:47Z</time>
      </trkpt>
      <trkpt lat="47.10581" lon="5.97403">
        <ele>301</ele>
        <time>2022-06-05T02:11:23Z</time>
      </trkpt>
      <trkpt lat="47.10588" lon="5.97334">
        <ele>300</ele>
        <time>2022-06-05T02:12:01Z</time>
      </trkpt>
      <trkpt lat="47.10592" lon="5.97254">
        <ele>302</ele>
        <time>2022-06-05T02:12:45Z</time>
      </trkpt>
      <trkpt lat="47.10589" lon="5.97172">
        <ele>302</ele>
        <time>2022-06-05T02:13:30Z</time>
      </trkpt>
      <trkpt lat="47.10585" lon="5.97117">
        <ele>302</ele>
        <time>2022-06-05T02:14:00Z</time>
      </trkpt>
      <trkpt lat="47.10576" lon="5.97054">
        <ele>303</ele>
        <time>2022-06-05T02:14:35Z</time>
      </trkpt>
      <trkpt lat="47.10569" lon="5.97023">
        <ele>304</ele>
        <time>2022-06-05T02:14:52Z</time>
      </trkpt>
      <trkpt lat="47.10556" lon="5.96986">
        <ele>304</ele>
        <time>2022-06-05T02:15:15Z</time>
      </trkpt>
      <trkpt lat="47.10531" lon="5.96919">
        <ele>303</ele>
        <time>2022-06-05T02:15:57Z</time>
      </trkpt>
      <trkpt lat="47.105" lon="5.96825">
        <ele>300</ele>
        <time>2022-06-05T02:16:54Z</time>
      </trkpt>
      <trkpt lat="47.10457" lon="5.96709">
        <ele>301</ele>
        <time>2022-06-05T02:18:06Z</time>
      </trkpt>
      <trkpt lat="47.10437" lon="5.96629">
        <ele>299</ele>
        <time>2022-06-05T02:18:52Z</time>
      </trkpt>
      <trkpt lat="47.10421" lon="5.96553">
        <ele>296</ele>
        <time>2022-06-05T02:19:36Z</time>
      </trkpt>
      <trkpt lat="47.10416" lon="5.9651">
        <ele>296</ele>
        <time>2022-06-05T02:20:00Z</time>
      </trkpt>
      <trkpt lat="47.10422" lon="5.96361">
        <ele>293</ele>
        <time>2022-06-05T02:21:21Z</time>
      </trkpt>
      <trkpt lat="47.10427" lon="5.96335">
        <ele>292</ele>
        <time>2022-06-05T02:21:36Z</time>
      </trkpt>
      <trkpt lat="47.10426" lon="5.96297">
        <ele>291</ele>
        <time>2022-06-05T02:21:57Z</time>
      </trkpt>
      <trkpt lat="47.1043" lon="5.96272">
        <ele>290</ele>
        <time>2022-06-05T02:22:10Z</time>
      </trkpt>
      <trkpt lat="47.10436" lon="5.96265">
        <ele>291</ele>
        <time>2022-06-05T02:22:17Z</time>
      </trkpt>
      <trkpt lat="47.10448" lon="5.96256">
        <ele>291</ele>
        <time>2022-06-05T02:22:28Z</time>
      </trkpt>
      <trkpt lat="47.10461" lon="5.96269">
        <ele>292</ele>
        <time>2022-06-05T02:22:41Z</time>
      </trkpt>
      <trkpt lat="47.10461" lon="5.96283">
        <ele>293</ele>
        <time>2022-06-05T02:22:48Z</time>
      </trkpt>
      <trkpt lat="47.10448" lon="5.96359">
        <ele>297</ele>
        <time>2022-06-05T02:23:31Z</time>
      </trkpt>
      <trkpt lat="47.10448" lon="5.9637">
        <ele>298</ele>
        <time>2022-06-05T02:23:37Z</time>
      </trkpt>
      <trkpt lat="47.10459" lon="5.96392">
        <ele>302</ele>
        <time>2022-06-05T02:23:52Z</time>
      </trkpt>
      <trkpt lat="47.10472" lon="5.96395">
        <ele>305</ele>
        <time>2022-06-05T02:24:02Z</time>
      </trkpt>
      <trkpt lat="47.10506" lon="5.96373">
        <ele>308</ele>
        <time>2022-06-05T02:24:32Z</time>
      </trkpt>
      <trkpt lat="47.1052" lon="5.96368">
        <ele>308</ele>
        <time>2022-06-05T02:24:43Z</time>
      </trkpt>
      <trkpt lat="47.10601" lon="5.9636">
        <ele>315</ele>
        <time>2022-06-05T02:25:49Z</time>
      </trkpt>
      <trkpt lat="47.10593" lon="5.96402">
        <ele>320</ele>
        <time>2022-06-05T02:26:13Z</time>
      </trkpt>
      <trkpt lat="47.10585" lon="5.96417">
        <ele>321</ele>
        <time>2022-06-05T02:26:23Z</time>
      </trkpt>
      <trkpt lat="47.10552" lon="5.96429">
        <ele>320</ele>
        <time>2022-06-05T02:26:50Z</time>
      </trkpt>
      <trkpt lat="47.10499" lon="5.96492">
        <ele>325</ele>
        <time>2022-06-05T02:27:44Z</time>
      </trkpt>
      <trkpt lat="47.10494" lon="5.96505">
        <ele>324</ele>
        <time>2022-06-05T02:27:52Z</time>
      </trkpt>
      <trkpt lat="47.10494" lon="5.9652">
        <ele>324</ele>
        <time>2022-06-05T02:28:01Z</time>
      </trkpt>
      <trkpt lat="47.10498" lon="5.96528">
        <ele>326</ele>
        <time>2022-06-05T02:28:07Z</time>
      </trkpt>
      <trkpt lat="47.10536" lon="5.9655">
        <ele>332</ele>
        <time>2022-06-05T02:28:39Z</time>
      </trkpt>
      <trkpt lat="47.1054" lon="5.96556">
        <ele>333</ele>
        <time>2022-06-05T02:28:43Z</time>
      </trkpt>
      <trkpt lat="47.10574" lon="5.9669">
        <ele>340</ele>
        <time>2022-06-05T02:30:02Z</time>
      </trkpt>
      <trkpt lat="47.1058" lon="5.96703">
        <ele>341</ele>
        <time>2022-06-05T02:30:10Z</time>
      </trkpt>
      <trkpt lat="47.10605" lon="5.96734">
        <ele>343</ele>
        <time>2022-06-05T02:30:37Z</time>
      </trkpt>
      <trkpt lat="47.10643" lon="5.96802">
        <ele>344</ele>
        <time>2022-06-05T02:31:24Z</time>
      </trkpt>
      <trkpt lat="47.10684" lon="5.9685">
        <ele>348</ele>
        <time>2022-06-05T02:32:07Z</time>
      </trkpt>
      <trkpt lat="47.10722" lon="5.96904">
        <ele>351</ele>
        <time>2022-06-05T02:32:49Z</time>
      </trkpt>
      <trkpt lat="47.1079" lon="5.96978">
        <ele>356</ele>
        <time>2022-06-05T02:33:56Z</time>
      </trkpt>
      <trkpt lat="47.10817" lon="5.97001">
        <ele>358</ele>
        <time>2022-06-05T02:34:22Z</time>
      </trkpt>
      <trkpt lat="47.10862" lon="5.97032">
        <ele>359</ele>
        <time>2022-06-05T02:35:02Z</time>
      </trkpt>
      <trkpt lat="47.10903" lon="5.97047">
        <ele>360</ele>
        <time>2022-06-05T02:35:35Z</time>
      </trkpt>
      <trkpt lat="47.10881" lon="5.97081">
        <ele>359</ele>
        <time>2022-06-05T02:36:00Z</time>
      </trkpt>
      <trkpt lat="47.10874" lon="5.97097">
        <ele>358</ele>
        <time>2022-06-05T02:36:11Z</time>
      </trkpt>
      <trkpt lat="47.10874" lon="5.97115">
        <ele>357</ele>
        <time>2022-06-05T02:36:21Z</time>
      </trkpt>
      <trkpt lat="47.10886" lon="5.97157">
        <ele>356</ele>
        <time>2022-06-05T02:36:46Z</time>
      </trkpt>
      <trkpt lat="47.10885" lon="5.97173">
        <ele>356</ele>
        <time>2022-06-05T02:36:54Z</time>
      </trkpt>
      <trkpt lat="47.10843" lon="5.97283">
        <ele>356</ele>
        <time>2022-06-05T02:38:03Z</time>
      </trkpt>
      <trkpt lat="47.10802" lon="5.97419">
        <ele>357</ele>
        <time>2022-06-05T02:39:24Z</time>
      </trkpt>
      <trkpt lat="47.10794" lon="5.9744">
        <ele>358</ele>
        <time>2022-06-05T02:39:37Z</time>
      </trkpt>
      <trkpt lat="47.10755" lon="5.97526">
        <ele>361</ele>
        <time>2022-06-05T02:40:34Z</time>
      </trkpt>
      <trkpt lat="47.10705" lon="5.97622">
        <ele>365</ele>
        <time>2022-06-05T02:41:40Z</time>
      </trkpt>
      <trkpt lat="47.10678" lon="5.97701">
        <ele>371</ele>
        <time>2022-06-05T02:42:28Z</time>
      </trkpt>
      <trkpt lat="47.10651" lon="5.97755">
        <ele>372</ele>
        <time>2022-06-05T02:43:05Z</time>
      </trkpt>
      <trkpt lat="47.10629" lon="5.97811">
        <ele>377</ele>
        <time>2022-06-05T02:43:40Z</time>
      </trkpt>
      <trkpt lat="47.1062" lon="5.97849">
        <ele>381</ele>
        <time>2022-06-05T02:44:01Z</time>
      </trkpt>
      <trkpt lat="47.10613" lon="5.9789">
        <ele>382</ele>
        <time>2022-06-05T02:44:24Z</time>
      </trkpt>
      <trkpt lat="47.1061" lon="5.97954">
        <ele>383</ele>
        <time>2022-06-05T02:45:00Z</time>
      </trkpt>
      <trkpt lat="47.10591" lon="5.98023">
        <ele>384</ele>
        <time>2022-06-05T02:45:40Z</time>
      </trkpt>
      <trkpt lat="47.10583" lon="5.98036">
        <ele>384</ele>
        <time>2022-06-05T02:45:50Z</time>
      </trkpt>
      <trkpt lat="47.10545" lon="5.98068">
        <ele>385</ele>
        <time>2022-06-05T02:46:25Z</time>
      </trkpt>
      <trkpt lat="47.10502" lon="5.98093">
        <ele>385</ele>
        <time>2022-06-05T02:47:01Z</time>
      </trkpt>
      <trkpt lat="47.1043" lon="5.98128">
        <ele>388</ele>
        <time>2022-06-05T02:48:02Z</time>
      </trkpt>
      <trkpt lat="47.1039" lon="5.98158">
        <ele>388</ele>
        <time>2022-06-05T02:48:39Z</time>
      </trkpt>
      <trkpt lat="47.1031" lon="5.9831">
        <ele>388</ele>
        <time>2022-06-05T02:50:23Z</time>
      </trkpt>
      <trkpt lat="47.10192" lon="5.98469">
        <ele>385</ele>
        <time>2022-06-05T02:52:32Z</time>
      </trkpt>
      <trkpt lat="47.10166" lon="5.98518">
        <ele>386</ele>
        <time>2022-06-05T02:53:06Z</time>
      </trkpt>
      <trkpt lat="47.10106" lon="5.98678">
        <ele>393</ele>
        <time>2022-06-05T02:54:45Z</time>
      </trkpt>
      <trkpt lat="47.10077" lon="5.98786">
        <ele>397</ele>
        <time>2022-06-05T02:55:49Z</time>
      </trkpt>
      <trkpt lat="47.1007" lon="5.98808">
        <ele>397</ele>
        <time>2022-06-05T02:56:02Z</time>
      </trkpt>
      <trkpt lat="47.10027" lon="5.9887">
        <ele>400</ele>
        <time>2022-06-05T02:56:50Z</time>
      </trkpt>
      <trkpt lat="47.10006" lon="5.98916">
        <ele>403</ele>
        <time>2022-06-05T02:57:20Z</time>
      </trkpt>
      <trkpt lat="47.0999" lon="5.98965">
        <ele>403</ele>
        <time>2022-06-05T02:57:50Z</time>
      </trkpt>
      <trkpt lat="47.09986" lon="5.98992">
        <ele>403</ele>
        <time>2022-06-05T02:58:05Z</time>
      </trkpt>
      <trkpt lat="47.09986" lon="5.9902">
        <ele>404</ele>
        <time>2022-06-05T02:58:20Z</time>
      </trkpt>
      <trkpt lat="47.09984" lon="5.99041">
        <ele>404</ele>
        <time>2022-06-05T02:58:32Z</time>
      </trkpt>
      <trkpt lat="47.09963" lon="5.99099">
        <ele>404</ele>
        <time>2022-06-05T02:59:08Z</time>
      </trkpt>
      <trkpt lat="47.09956" lon="5.99132">
        <ele>405</ele>
        <time>2022-06-05T02:59:26Z</time>
      </trkpt>
      <trkpt lat="47.09955" lon="5.99179">
        <ele>407</ele>
        <time>2022-06-05T02:59:52Z</time>
      </trkpt>
      <trkpt lat="47.09927" lon="5.99277">
        <ele>409</ele>
        <time>2022-06-05T03:00:51Z</time>
      </trkpt>
      <trkpt lat="47.09923" lon="5.9935">
        <ele>410</ele>
        <time>2022-06-05T03:01:30Z</time>
      </trkpt>
      <trkpt lat="47.0991" lon="5.99408">
        <ele>410</ele>
        <time>2022-06-05T03:02:03Z</time>
      </trkpt>
      <trkpt lat="47.09907" lon="5.99486">
        <ele>410</ele>
        <time>2022-06-05T03:02:46Z</time>
      </trkpt>
      <trkpt lat="47.09907" lon="5.99524">
        <ele>410</ele>
        <time>2022-06-05T03:03:07Z</time>
      </trkpt>
      <trkpt lat="47.09867" lon="5.99818">
        <ele>411</ele>
        <time>2022-06-05T03:05:50Z</time>
      </trkpt>
      <trkpt lat="47.09861" lon="5.99892">
        <ele>413</ele>
        <time>2022-06-05T03:06:31Z</time>
      </trkpt>
      <trkpt lat="47.09847" lon="5.99947">
        <ele>413</ele>
        <time>2022-06-05T03:07:03Z</time>
      </trkpt>
      <trkpt lat="47.09804" lon="6.00075">
        <ele>411</ele>
        <time>2022-06-05T03:08:21Z</time>
      </trkpt>
      <trkpt lat="47.098" lon="6.00106">
        <ele>410</ele>
        <time>2022-06-05T03:08:38Z</time>
      </trkpt>
      <trkpt lat="47.09802" lon="6.00136">
        <ele>409</ele>
        <time>2022-06-05T03:08:55Z</time>
      </trkpt>
      <trkpt lat="47.09814" lon="6.0019">
        <ele>409</ele>
        <time>2022-06-05T03:09:26Z</time>
      </trkpt>
      <trkpt lat="47.09811" lon="6.00249">
        <ele>406</ele>
        <time>2022-06-05T03:09:58Z</time>
      </trkpt>
      <trkpt lat="47.09805" lon="6.00336">
        <ele>401</ele>
        <time>2022-06-05T03:10:46Z</time>
      </trkpt>
      <trkpt lat="47.09805" lon="6.00367">
        <ele>400</ele>
        <time>2022-06-05T03:11:02Z</time>
      </trkpt>
      <trkpt lat="47.09809" lon="6.00395">
        <ele>399</ele>
        <time>2022-06-05T03:11:18Z</time>
      </trkpt>
      <trkpt lat="47.09809" lon="6.00462">
        <ele>396</ele>
        <time>2022-06-05T03:11:55Z</time>
      </trkpt>
      <trkpt lat="47.09801" lon="6.00565">
        <ele>392</ele>
        <time>2022-06-05T03:12:51Z</time>
      </trkpt>
      <trkpt lat="47.09776" lon="6.00695">
        <ele>387</ele>
        <time>2022-06-05T03:14:05Z</time>
      </trkpt>
      <trkpt lat="47.09771" lon="6.00709">
        <ele>387</ele>
        <time>2022-06-05T03:14:14Z</time>
      </trkpt>
      <trkpt lat="47.09727" lon="6.00766">
        <ele>387</ele>
        <time>2022-06-05T03:15:00Z</time>
      </trkpt>
      <trkpt lat="47.09723" lon="6.00774">
        <ele>387</ele>
        <time>2022-06-05T03:15:06Z</time>
      </trkpt>
    </trkseg>
  </trk>
</gpx>